createdAt,value
2019-01-27T00:00:33.527Z,20.00
2019-01-27T00:05:37.639Z,19.13
2019-01-27T00:10:41.323Z,21.30
2019-01-27T00:15:44.999Z,24.30
2019-01-27T00:20:48.666Z,24.03
2019-01-27T00:25:52.324Z,21.67
2019-01-27T00:30:56.006Z,23.83
2019-01-27T00:35:59.768Z,20.10
2019-01-27T00:41:03.522Z,21.97
2019-01-27T00:46:07.335Z,20.33
2019-01-27T00:51:11.072Z,20.00
2019-01-27T00:56:14.735Z,19.13
2019-01-27T01:01:18.480Z,18.93
2019-01-27T01:06:22.330Z,18.37
2019-01-27T01:11:26.004Z,19.07
2019-01-27T01:16:29.744Z,18.63
2019-01-27T01:21:33.510Z,18.23
2019-01-27T01:26:37.265Z,17.10
2019-01-27T01:31:40.927Z,17.00
2019-01-27T01:36:44.699Z,17.60
2019-01-27T01:41:48.439Z,17.10
2019-01-27T01:46:52.188Z,17.63
2019-01-27T01:51:55.866Z,16.63
2019-01-27T01:56:59.546Z,15.90
2019-01-27T02:02:03.280Z,15.33
2019-01-27T02:07:07.110Z,16.03
2019-01-27T02:12:10.796Z,15.70
2019-01-27T02:17:14.470Z,17.07
2019-01-27T02:22:18.231Z,16.83
2019-01-27T02:27:21.961Z,15.60
2019-01-27T02:32:25.987Z,15.63
2019-01-27T02:37:29.648Z,16.63
2019-01-27T02:42:33.405Z,16.53
2019-01-27T02:47:37.089Z,15.23
2019-01-27T02:52:41.090Z,16.13
2019-01-27T02:57:44.836Z,13.90
2019-01-27T03:02:48.504Z,14.77
2019-01-27T03:07:52.273Z,15.00
2019-01-27T03:12:55.943Z,14.43
2019-01-27T03:17:59.806Z,14.10
2019-01-27T03:23:03.486Z,14.63
2019-01-27T03:28:07.257Z,14.63
2019-01-27T03:33:10.941Z,13.03
2019-01-27T03:38:14.677Z,13.33
2019-01-27T03:43:18.423Z,13.73
2019-01-27T03:48:22.098Z,13.50
2019-01-27T03:53:25.841Z,13.27
2019-01-27T03:58:29.504Z,13.87
2019-01-27T04:03:33.242Z,13.27
2019-01-27T04:08:37.109Z,13.47
2019-01-27T04:13:40.835Z,13.43
2019-01-27T04:18:44.489Z,14.53
2019-01-27T04:23:48.179Z,15.07
2019-01-27T04:28:51.861Z,15.17
2019-01-27T04:33:55.604Z,15.67
2019-01-27T04:38:59.269Z,15.97
2019-01-27T04:44:02.969Z,15.47
2019-01-27T04:49:06.772Z,15.03
2019-01-27T04:54:10.433Z,15.07
2019-01-27T04:59:14.115Z,12.93
2019-01-27T05:04:30.245Z,13.80
2019-01-27T05:09:33.916Z,13.77
2019-01-27T05:14:37.585Z,13.10
2019-01-27T05:19:41.252Z,12.93
2019-01-27T05:24:44.917Z,12.93
2019-01-27T05:29:48.585Z,13.97
2019-01-27T05:34:52.265Z,13.80
2019-01-27T05:39:55.941Z,12.70
2019-01-27T05:44:59.609Z,11.83
2019-01-27T05:50:03.911Z,12.10
2019-01-27T05:55:08.329Z,11.77
2019-01-27T06:00:15.901Z,11.70
2019-01-27T06:05:19.586Z,11.33
2019-01-27T06:10:23.329Z,11.70
2019-01-27T06:15:27.160Z,10.77
2019-01-27T06:20:30.826Z,11.40
2019-01-27T06:25:34.496Z,11.40
2019-01-27T06:30:38.155Z,11.03
2019-01-27T06:35:42.206Z,10.33
2019-01-27T06:40:45.861Z,10.73
2019-01-27T06:45:49.538Z,10.67
2019-01-27T06:50:53.280Z,10.57
2019-01-27T06:55:56.953Z,10.93
2019-01-27T07:01:06.862Z,10.87
2019-01-27T07:06:17.425Z,13.53
2019-01-27T07:11:27.179Z,12.00
2019-01-27T07:16:43.709Z,14.57
2019-01-27T07:22:12.389Z,10.20
2019-01-27T07:27:41.436Z,10.47
2019-01-27T07:33:02.969Z,10.43
2019-01-27T07:38:15.497Z,9.77
2019-01-27T07:43:37.302Z,9.67
2019-01-27T07:48:48.536Z,9.80
2019-01-27T07:54:10.095Z,10.13
2019-01-27T07:59:38.020Z,9.13
2019-01-27T08:04:48.548Z,9.30
2019-01-27T08:10:14.186Z,9.00
2019-01-27T08:15:35.852Z,10.37
2019-01-27T08:20:56.688Z,9.70
2019-01-27T08:26:18.261Z,9.13
2019-01-27T08:31:45.672Z,9.03
2019-01-27T08:37:02.505Z,8.57
2019-01-27T08:42:23.334Z,8.37
2019-01-27T08:47:26.993Z,8.83
2019-01-27T08:52:30.970Z,9.00
2019-01-27T08:57:34.656Z,8.23
2019-01-27T09:02:56.298Z,7.80
2019-01-27T09:08:09.268Z,8.97
2019-01-27T09:13:39.464Z,8.30
2019-01-27T09:19:09.362Z,8.43
2019-01-27T09:24:32.213Z,8.97
2019-01-27T09:29:42.441Z,9.73
2019-01-27T09:34:55.577Z,8.43
2019-01-27T09:40:27.520Z,9.10
2019-01-27T09:45:57.893Z,7.90
2019-01-27T09:50:57.440Z,8.00
2019-01-27T09:56:23.511Z,6.93
2019-01-27T10:01:32.060Z,7.27
2019-01-27T10:06:45.417Z,7.57
2019-01-27T10:11:55.077Z,7.37
2019-01-27T10:17:07.400Z,6.83
2019-01-27T10:22:36.244Z,6.53
2019-01-27T10:27:58.108Z,6.63
2019-01-27T10:33:09.576Z,6.57
2019-01-27T10:38:41.756Z,6.00
2019-01-27T10:43:53.866Z,6.67
2019-01-27T10:49:22.645Z,8.20
2019-01-27T10:54:41.597Z,5.87
2019-01-27T10:59:52.347Z,5.90
2019-01-27T11:05:14.053Z,5.70
2019-01-27T11:10:28.352Z,5.10
2019-01-27T11:15:50.132Z,5.13
2019-01-27T11:21:12.973Z,4.47
2019-01-27T11:26:44.730Z,4.30
2019-01-27T11:32:16.909Z,4.83
2019-01-27T11:37:37.262Z,4.40
2019-01-27T11:43:06.145Z,4.40
2019-01-27T11:48:13.837Z,5.30
2019-01-27T11:53:17.501Z,5.10
2019-01-27T11:58:21.160Z,4.90
2019-01-27T12:03:24.821Z,4.57
2019-01-27T12:08:28.494Z,3.97
2019-01-27T12:13:32.319Z,3.70
2019-01-27T12:18:35.972Z,4.23
2019-01-27T12:23:39.624Z,3.40
2019-01-27T12:28:43.375Z,3.67
2019-01-27T12:33:47.030Z,3.47
2019-01-27T12:38:50.694Z,3.60
2019-01-27T12:43:54.351Z,3.00
2019-01-27T12:48:58.004Z,2.83
2019-01-27T12:54:01.739Z,2.60
2019-01-27T12:59:05.669Z,3.13
2019-01-27T13:04:09.485Z,2.70
2019-01-27T13:09:13.167Z,2.60
2019-01-27T13:14:16.809Z,2.30
2019-01-27T13:19:20.466Z,2.90
2019-01-27T13:24:24.201Z,2.83
2019-01-27T13:29:28.029Z,3.50
2019-01-27T13:34:31.685Z,3.50
2019-01-27T13:39:35.793Z,3.50
2019-01-27T13:44:39.441Z,3.50
2019-01-27T13:49:43.100Z,3.63
2019-01-27T13:54:46.767Z,3.27
2019-01-27T13:59:51.532Z,3.53
2019-01-27T14:04:55.378Z,3.67
2019-01-27T14:09:59.038Z,3.63
2019-01-27T14:15:02.714Z,4.23
2019-01-27T14:20:08.808Z,3.93
2019-01-27T14:25:14.117Z,4.23
2019-01-27T14:30:20.160Z,4.40
2019-01-27T14:35:23.889Z,4.57
2019-01-27T14:40:28.501Z,4.50
2019-01-27T14:45:32.728Z,3.97
2019-01-27T14:50:38.964Z,4.37
2019-01-27T14:55:42.773Z,4.50
2019-01-27T15:00:46.592Z,4.20
2019-01-27T15:05:50.289Z,4.43
2019-01-27T15:10:54.018Z,5.03
2019-01-27T15:15:57.673Z,4.77
2019-01-27T15:21:08.158Z,4.77
2019-01-27T15:26:11.832Z,4.70
2019-01-27T15:31:15.497Z,4.87
2019-01-27T15:36:19.148Z,5.53
2019-01-27T15:41:22.840Z,5.93
2019-01-27T15:46:27.271Z,5.37
2019-01-27T15:51:30.933Z,4.90
2019-01-27T15:56:35.002Z,6.10
2019-01-27T16:01:39.050Z,5.57
2019-01-27T16:06:42.717Z,5.80
2019-01-27T16:11:46.368Z,6.83
2019-01-27T16:16:50.111Z,5.83
2019-01-27T16:21:53.858Z,5.30
2019-01-27T16:26:57.589Z,4.83
2019-01-27T16:32:09.436Z,5.10
2019-01-27T16:37:13.182Z,4.50
2019-01-27T16:42:16.962Z,4.07
2019-01-27T16:47:20.646Z,4.10
2019-01-27T16:52:24.333Z,5.13
2019-01-27T16:57:28.004Z,4.30
2019-01-27T17:02:31.677Z,3.87
2019-01-27T17:07:35.353Z,4.50
2019-01-27T17:12:39.449Z,4.27
2019-01-27T17:17:44.089Z,4.93
2019-01-27T17:22:47.836Z,4.37
2019-01-27T17:27:53.676Z,4.53
2019-01-27T17:32:57.177Z,4.70
2019-01-27T17:38:01.075Z,4.27
2019-01-27T17:43:04.976Z,4.50
2019-01-27T17:48:08.982Z,4.30
2019-01-27T17:53:12.720Z,4.50
2019-01-27T17:58:41.473Z,4.40
2019-01-27T18:04:03.348Z,4.50
2019-01-27T18:09:16.553Z,5.00
2019-01-27T18:14:24.467Z,4.87
2019-01-27T18:19:28.155Z,4.90
2019-01-27T18:24:31.803Z,5.93
2019-01-27T18:29:35.889Z,5.43
2019-01-27T18:34:39.657Z,5.60
2019-01-27T18:39:43.327Z,5.13
2019-01-27T18:44:46.978Z,5.27
2019-01-27T18:49:50.636Z,5.47
2019-01-27T18:55:01.988Z,5.37
2019-01-27T19:00:22.250Z,5.60
2019-01-27T19:05:45.940Z,5.17
2019-01-27T19:10:55.905Z,5.87
2019-01-27T19:16:24.940Z,5.47
2019-01-27T19:22:04.606Z,5.63
2019-01-27T19:27:34.195Z,5.60
2019-01-27T19:32:46.126Z,5.73
2019-01-27T19:37:56.813Z,5.50
2019-01-27T19:43:09.833Z,5.40
2019-01-27T19:48:32.680Z,5.60
2019-01-27T19:53:46.479Z,5.90
2019-01-27T19:59:09.712Z,5.57
2019-01-27T20:04:26.972Z,5.87
2019-01-27T20:09:53.018Z,5.93
2019-01-27T20:15:13.502Z,5.43
2019-01-27T20:20:54.504Z,5.30
2019-01-27T20:26:14.557Z,4.67
2019-01-27T20:31:32.688Z,4.60
2019-01-27T20:36:46.297Z,4.83
2019-01-27T20:42:18.369Z,4.23
2019-01-27T20:47:36.668Z,3.67
2019-01-27T20:52:58.900Z,4.23
2019-01-27T20:58:12.634Z,3.93
2019-01-27T21:03:35.478Z,4.10
2019-01-27T21:08:55.508Z,3.90
2019-01-27T21:14:09.181Z,4.17
2019-01-27T21:19:24.343Z,4.43
2019-01-27T21:24:28.093Z,4.40
2019-01-27T21:29:31.828Z,4.33
2019-01-27T21:34:35.578Z,4.23
2019-01-27T21:39:39.339Z,4.20
2019-01-27T21:44:43.001Z,4.37
2019-01-27T21:49:47.717Z,4.17
2019-01-27T21:54:51.369Z,3.87
2019-01-27T21:59:55.031Z,3.70
2019-01-27T22:04:58.697Z,3.43
2019-01-27T22:10:02.433Z,3.80
2019-01-27T22:15:06.660Z,4.03
2019-01-27T22:20:12.849Z,3.90
2019-01-27T22:25:16.825Z,3.90
2019-01-27T22:30:21.301Z,4.10
2019-01-27T22:35:24.964Z,3.50
2019-01-27T22:40:28.608Z,4.13
2019-01-27T22:45:32.275Z,4.00
2019-01-27T22:50:35.995Z,4.50
2019-01-27T22:55:39.673Z,4.63
2019-01-27T23:01:00.676Z,4.40
2019-01-27T23:06:04.691Z,4.07
2019-01-27T23:11:08.352Z,4.40
2019-01-27T23:16:12.077Z,4.60
2019-01-27T23:21:15.732Z,4.03
2019-01-27T23:26:19.384Z,4.00
2019-01-27T23:31:23.040Z,4.20
2019-01-27T23:36:26.720Z,4.40
2019-01-27T23:41:30.369Z,4.80
2019-01-27T23:46:34.593Z,4.87
2019-01-27T23:51:38.253Z,4.30
2019-01-27T23:56:41.909Z,4.63
